sensor_id;sensor_type;location;lat;lon;timestamp;temperature;humidity
7494;DHT22;3788;49.902;8.590;2023-04-24T00:01:19;12.20;99.90
7494;DHT22;3788;49.902;8.590;2023-04-24T00:03:45;12.20;99.90
7494;DHT22;3788;49.902;8.590;2023-04-24T00:06:13;12.30;99.90
7494;DHT22;3788;49.902;8.590;2023-04-24T00:08:42;12.20;99.90
7494;DHT22;3788;49.902;8.590;2023-04-24T00:11:09;12.20;99.90
7494;DHT22;3788;49.902;8.590;2023-04-24T00:13:35;12.20;99.90
7494;DHT22;3788;49.902;8.590;2023-04-24T00:16:02;12.20;99.90
7494;DHT22;3788;49.902;8.590;2023-04-24T00:18:29;12.20;99.90
7494;DHT22;3788;49.902;8.590;2023-04-24T00:20:55;12.20;99.90
7494;DHT22;3788;49.902;8.590;2023-04-24T00:23:23;12.20;99.90
7494;DHT22;3788;49.902;8.590;2023-04-24T00:25:50;12.20;99.90
7494;DHT22;3788;49.902;8.590;2023-04-24T00:28:17;12.20;99.90
7494;DHT22;3788;49.902;8.590;2023-04-24T00:30:44;12.20;99.90
7494;DHT22;3788;49.902;8.590;2023-04-24T00:33:10;12.20;99.90
7494;DHT22;3788;49.902;8.590;2023-04-24T00:35:37;12.20;99.90
7494;DHT22;3788;49.902;8.590;2023-04-24T00:38:04;12.20;99.90
7494;DHT22;3788;49.902;8.590;2023-04-24T00:40:32;12.20;99.90
7494;DHT22;3788;49.902;8.590;2023-04-24T00:42:59;12.20;99.90
7494;DHT22;3788;49.902;8.590;2023-04-24T00:45:25;12.20;99.90
7494;DHT22;3788;49.902;8.590;2023-04-24T00:47:52;12.10;99.90
7494;DHT22;3788;49.902;8.590;2023-04-24T00:50:21;12.10;99.90
7494;DHT22;3788;49.902;8.590;2023-04-24T00:52:48;12.00;99.90
7494;DHT22;3788;49.902;8.590;2023-04-24T00:55:14;11.90;99.90
7494;DHT22;3788;49.902;8.590;2023-04-24T00:57:42;11.90;99.90
7494;DHT22;3788;49.902;8.590;2023-04-24T01:00:11;11.80;99.90
7494;DHT22;3788;49.902;8.590;2023-04-24T01:02:38;11.80;99.90
7494;DHT22;3788;49.902;8.590;2023-04-24T01:05:09;11.80;99.90
7494;DHT22;3788;49.902;8.590;2023-04-24T01:07:37;11.80;99.90
7494;DHT22;3788;49.902;8.590;2023-04-24T01:10:05;11.80;99.90
7494;DHT22;3788;49.902;8.590;2023-04-24T01:12:33;11.80;99.90
7494;DHT22;3788;49.902;8.590;2023-04-24T01:15:01;11.80;99.90
7494;DHT22;3788;49.902;8.590;2023-04-24T01:17:29;11.80;99.90
7494;DHT22;3788;49.902;8.590;2023-04-24T01:19:56;11.90;99.90
7494;DHT22;3788;49.902;8.590;2023-04-24T01:22:24;11.90;99.90
7494;DHT22;3788;49.902;8.590;2023-04-24T01:24:51;11.80;99.90
7494;DHT22;3788;49.902;8.590;2023-04-24T01:27:19;11.80;99.90
7494;DHT22;3788;49.902;8.590;2023-04-24T01:29:46;11.80;99.90
7494;DHT22;3788;49.902;8.590;2023-04-24T01:32:14;11.80;99.90
7494;DHT22;3788;49.902;8.590;2023-04-24T01:34:42;11.70;99.90
7494;DHT22;3788;49.902;8.590;2023-04-24T01:37:09;11.70;99.90
7494;DHT22;3788;49.902;8.590;2023-04-24T01:39:37;11.70;99.90
7494;DHT22;3788;49.902;8.590;2023-04-24T01:42:04;11.70;99.90
7494;DHT22;3788;49.902;8.590;2023-04-24T01:44:32;11.80;99.90
7494;DHT22;3788;49.902;8.590;2023-04-24T01:47:00;11.80;99.90
7494;DHT22;3788;49.902;8.590;2023-04-24T01:49:27;11.80;99.90
7494;DHT22;3788;49.902;8.590;2023-04-24T01:51:53;11.80;99.90
7494;DHT22;3788;49.902;8.590;2023-04-24T01:56:56;11.80;99.90
7494;DHT22;3788;49.902;8.590;2023-04-24T01:59:23;11.80;99.90
7494;DHT22;3788;49.902;8.590;2023-04-24T02:01:51;11.80;99.90
7494;DHT22;3788;49.902;8.590;2023-04-24T02:04:18;11.80;99.90
7494;DHT22;3788;49.902;8.590;2023-04-24T02:06:45;11.80;99.90
7494;DHT22;3788;49.902;8.590;2023-04-24T02:09:11;11.80;99.90
7494;DHT22;3788;49.902;8.590;2023-04-24T02:11:38;11.80;99.90
7494;DHT22;3788;49.902;8.590;2023-04-24T02:14:06;11.80;99.90
7494;DHT22;3788;49.902;8.590;2023-04-24T02:16:32;11.80;99.90
7494;DHT22;3788;49.902;8.590;2023-04-24T02:19:01;11.80;99.90
7494;DHT22;3788;49.902;8.590;2023-04-24T02:21:28;11.80;99.90
7494;DHT22;3788;49.902;8.590;2023-04-24T02:23:56;11.80;99.90
7494;DHT22;3788;49.902;8.590;2023-04-24T02:26:23;11.80;99.90
7494;DHT22;3788;49.902;8.590;2023-04-24T02:28:50;11.80;99.90
7494;DHT22;3788;49.902;8.590;2023-04-24T02:31:18;11.80;99.90
7494;DHT22;3788;49.902;8.590;2023-04-24T02:33:45;11.80;99.90
7494;DHT22;3788;49.902;8.590;2023-04-24T02:36:11;11.80;99.90
7494;DHT22;3788;49.902;8.590;2023-04-24T02:38:39;11.80;99.90
7494;DHT22;3788;49.902;8.590;2023-04-24T02:41:06;11.80;99.90
7494;DHT22;3788;49.902;8.590;2023-04-24T02:43:32;11.80;99.90
7494;DHT22;3788;49.902;8.590;2023-04-24T02:46:00;11.70;99.90
7494;DHT22;3788;49.902;8.590;2023-04-24T02:48:28;11.70;99.90
7494;DHT22;3788;49.902;8.590;2023-04-24T02:50:55;11.70;99.90
7494;DHT22;3788;49.902;8.590;2023-04-24T02:53:22;11.70;99.90
7494;DHT22;3788;49.902;8.590;2023-04-24T02:55:49;11.70;99.90
7494;DHT22;3788;49.902;8.590;2023-04-24T02:58:16;11.70;99.90
7494;DHT22;3788;49.902;8.590;2023-04-24T03:00:45;11.70;99.90
7494;DHT22;3788;49.902;8.590;2023-04-24T03:03:12;11.70;99.90
7494;DHT22;3788;49.902;8.590;2023-04-24T03:05:40;11.80;99.90
7494;DHT22;3788;49.902;8.590;2023-04-24T03:08:06;11.80;99.90
7494;DHT22;3788;49.902;8.590;2023-04-24T03:10:33;11.80;99.90
7494;DHT22;3788;49.902;8.590;2023-04-24T03:13:00;11.80;99.90
7494;DHT22;3788;49.902;8.590;2023-04-24T03:15:26;11.80;99.90
7494;DHT22;3788;49.902;8.590;2023-04-24T03:17:53;11.80;99.90
7494;DHT22;3788;49.902;8.590;2023-04-24T03:20:20;11.80;99.90
7494;DHT22;3788;49.902;8.590;2023-04-24T03:22:49;11.70;99.90
7494;DHT22;3788;49.902;8.590;2023-04-24T03:25:15;11.70;99.90
7494;DHT22;3788;49.902;8.590;2023-04-24T03:27:42;11.70;99.90
7494;DHT22;3788;49.902;8.590;2023-04-24T03:30:09;11.60;99.90
7494;DHT22;3788;49.902;8.590;2023-04-24T03:32:36;11.60;99.90
7494;DHT22;3788;49.902;8.590;2023-04-24T03:35:05;11.50;99.90
7494;DHT22;3788;49.902;8.590;2023-04-24T03:37:32;11.50;99.90
7494;DHT22;3788;49.902;8.590;2023-04-24T03:40:00;11.50;99.90
7494;DHT22;3788;49.902;8.590;2023-04-24T03:42:27;11.40;99.90
7494;DHT22;3788;49.902;8.590;2023-04-24T03:44:54;11.40;99.90
7494;DHT22;3788;49.902;8.590;2023-04-24T03:47:20;11.40;99.90
7494;DHT22;3788;49.902;8.590;2023-04-24T03:49:47;11.30;99.90
7494;DHT22;3788;49.902;8.590;2023-04-24T03:52:14;11.30;99.90
7494;DHT22;3788;49.902;8.590;2023-04-24T03:54:41;11.30;99.90
7494;DHT22;3788;49.902;8.590;2023-04-24T03:57:09;11.20;99.90
7494;DHT22;3788;49.902;8.590;2023-04-24T03:59:36;11.20;99.90
7494;DHT22;3788;49.902;8.590;2023-04-24T04:02:02;11.20;99.90
7494;DHT22;3788;49.902;8.590;2023-04-24T04:04:29;11.20;99.90
7494;DHT22;3788;49.902;8.590;2023-04-24T04:06:56;11.20;99.90
7494;DHT22;3788;49.902;8.590;2023-04-24T04:09:25;11.20;99.90
7494;DHT22;3788;49.902;8.590;2023-04-24T04:11:52;11.20;99.90
7494;DHT22;3788;49.902;8.590;2023-04-24T04:14:20;11.10;99.90
7494;DHT22;3788;49.902;8.590;2023-04-24T04:16:47;11.10;99.90
7494;DHT22;3788;49.902;8.590;2023-04-24T04:19:13;11.10;99.90
7494;DHT22;3788;49.902;8.590;2023-04-24T04:21:40;11.00;99.90
7494;DHT22;3788;49.902;8.590;2023-04-24T04:24:07;11.00;99.90
7494;DHT22;3788;49.902;8.590;2023-04-24T04:26:35;10.90;99.90
7494;DHT22;3788;49.902;8.590;2023-04-24T04:29:03;10.90;99.90
7494;DHT22;3788;49.902;8.590;2023-04-24T04:31:35;10.80;99.90
7494;DHT22;3788;49.902;8.590;2023-04-24T04:34:02;10.70;99.90
7494;DHT22;3788;49.902;8.590;2023-04-24T04:36:29;10.70;99.90
7494;DHT22;3788;49.902;8.590;2023-04-24T04:38:56;10.60;99.90
7494;DHT22;3788;49.902;8.590;2023-04-24T04:41:24;10.60;99.90
7494;DHT22;3788;49.902;8.590;2023-04-24T04:43:51;10.60;99.90
7494;DHT22;3788;49.902;8.590;2023-04-24T04:46:18;10.60;99.90
7494;DHT22;3788;49.902;8.590;2023-04-24T04:48:46;10.50;99.90
7494;DHT22;3788;49.902;8.590;2023-04-24T04:51:13;10.50;99.90
7494;DHT22;3788;49.902;8.590;2023-04-24T04:53:39;10.50;99.90
7494;DHT22;3788;49.902;8.590;2023-04-24T04:56:06;10.50;99.90
7494;DHT22;3788;49.902;8.590;2023-04-24T04:58:33;10.50;99.90
7494;DHT22;3788;49.902;8.590;2023-04-24T05:01:00;10.50;99.90
7494;DHT22;3788;49.902;8.590;2023-04-24T05:03:26;10.50;99.90
7494;DHT22;3788;49.902;8.590;2023-04-24T05:05:54;10.50;99.90
7494;DHT22;3788;49.902;8.590;2023-04-24T05:08:21;10.60;99.90
7494;DHT22;3788;49.902;8.590;2023-04-24T05:10:48;10.50;99.90
7494;DHT22;3788;49.902;8.590;2023-04-24T05:13:14;10.60;99.90
7494;DHT22;3788;49.902;8.590;2023-04-24T05:15:41;10.60;99.90
7494;DHT22;3788;49.902;8.590;2023-04-24T05:18:07;10.60;99.90
7494;DHT22;3788;49.902;8.590;2023-04-24T05:20:34;10.70;99.90
7494;DHT22;3788;49.902;8.590;2023-04-24T05:23:02;10.70;99.90
7494;DHT22;3788;49.902;8.590;2023-04-24T05:25:29;10.80;99.90
7494;DHT22;3788;49.902;8.590;2023-04-24T05:27:57;10.90;99.90
7494;DHT22;3788;49.902;8.590;2023-04-24T05:30:24;10.90;99.90
7494;DHT22;3788;49.902;8.590;2023-04-24T05:32:51;10.90;99.90
7494;DHT22;3788;49.902;8.590;2023-04-24T05:35:18;10.90;99.90
7494;DHT22;3788;49.902;8.590;2023-04-24T05:37:45;10.90;99.90
7494;DHT22;3788;49.902;8.590;2023-04-24T05:40:13;10.90;99.90
7494;DHT22;3788;49.902;8.590;2023-04-24T05:42:39;11.00;99.90
7494;DHT22;3788;49.902;8.590;2023-04-24T05:45:07;11.00;99.90
7494;DHT22;3788;49.902;8.590;2023-04-24T05:47:35;11.10;99.90
7494;DHT22;3788;49.902;8.590;2023-04-24T05:50:02;11.20;99.90
7494;DHT22;3788;49.902;8.590;2023-04-24T05:52:29;11.40;99.90
7494;DHT22;3788;49.902;8.590;2023-04-24T05:54:56;11.40;99.90
7494;DHT22;3788;49.902;8.590;2023-04-24T05:57:24;11.40;99.90
7494;DHT22;3788;49.902;8.590;2023-04-24T05:59:51;11.50;99.90
7494;DHT22;3788;49.902;8.590;2023-04-24T06:02:18;11.50;99.90
7494;DHT22;3788;49.902;8.590;2023-04-24T06:04:45;11.50;99.90
7494;DHT22;3788;49.902;8.590;2023-04-24T06:07:11;11.50;99.90
7494;DHT22;3788;49.902;8.590;2023-04-24T06:09:38;11.50;99.90
7494;DHT22;3788;49.902;8.590;2023-04-24T06:12:05;11.50;99.90
7494;DHT22;3788;49.902;8.590;2023-04-24T06:14:34;11.50;99.90
7494;DHT22;3788;49.902;8.590;2023-04-24T06:17:01;11.40;99.90
7494;DHT22;3788;49.902;8.590;2023-04-24T06:19:28;11.40;99.90
7494;DHT22;3788;49.902;8.590;2023-04-24T06:21:55;11.40;99.90
7494;DHT22;3788;49.902;8.590;2023-04-24T06:24:21;11.40;99.90
7494;DHT22;3788;49.902;8.590;2023-04-24T06:26:48;11.40;99.90
7494;DHT22;3788;49.902;8.590;2023-04-24T06:29:15;11.50;99.80
7494;DHT22;3788;49.902;8.590;2023-04-24T06:31:43;11.50;99.60
7494;DHT22;3788;49.902;8.590;2023-04-24T06:34:09;11.50;99.40
7494;DHT22;3788;49.902;8.590;2023-04-24T06:36:36;11.50;99.20
7494;DHT22;3788;49.902;8.590;2023-04-24T06:39:03;11.50;99.20
7494;DHT22;3788;49.902;8.590;2023-04-24T06:41:30;11.60;99.20
7494;DHT22;3788;49.902;8.590;2023-04-24T06:43:56;11.70;99.30
7494;DHT22;3788;49.902;8.590;2023-04-24T06:46:23;11.80;99.20
7494;DHT22;3788;49.902;8.590;2023-04-24T06:48:52;11.80;98.90
7494;DHT22;3788;49.902;8.590;2023-04-24T06:51:21;11.90;99.10
7494;DHT22;3788;49.902;8.590;2023-04-24T06:53:48;12.00;99.40
7494;DHT22;3788;49.902;8.590;2023-04-24T06:56:15;12.00;99.00
7494;DHT22;3788;49.902;8.590;2023-04-24T06:58:42;12.00;99.10
7494;DHT22;3788;49.902;8.590;2023-04-24T07:01:09;12.10;99.20
7494;DHT22;3788;49.902;8.590;2023-04-24T07:03:36;12.30;99.30
7494;DHT22;3788;49.902;8.590;2023-04-24T07:06:04;12.40;99.00
7494;DHT22;3788;49.902;8.590;2023-04-24T07:08:31;12.40;99.20
7494;DHT22;3788;49.902;8.590;2023-04-24T07:10:59;12.40;98.20
7494;DHT22;3788;49.902;8.590;2023-04-24T07:13:26;12.40;98.10
7494;DHT22;3788;49.902;8.590;2023-04-24T07:15:53;12.50;97.40
7494;DHT22;3788;49.902;8.590;2023-04-24T07:18:21;12.50;97.20
7494;DHT22;3788;49.902;8.590;2023-04-24T07:20:48;12.50;97.00
7494;DHT22;3788;49.902;8.590;2023-04-24T07:23:16;12.50;97.10
7494;DHT22;3788;49.902;8.590;2023-04-24T07:25:44;12.50;97.30
7494;DHT22;3788;49.902;8.590;2023-04-24T07:28:10;12.50;97.50
7494;DHT22;3788;49.902;8.590;2023-04-24T07:30:37;12.50;97.10
7494;DHT22;3788;49.902;8.590;2023-04-24T07:33:04;12.60;97.50
7494;DHT22;3788;49.902;8.590;2023-04-24T07:35:33;12.70;96.10
7494;DHT22;3788;49.902;8.590;2023-04-24T07:38:00;12.90;94.50
7494;DHT22;3788;49.902;8.590;2023-04-24T07:40:27;13.10;93.80
7494;DHT22;3788;49.902;8.590;2023-04-24T07:42:55;13.20;93.40
7494;DHT22;3788;49.902;8.590;2023-04-24T07:45:21;13.30;92.20
7494;DHT22;3788;49.902;8.590;2023-04-24T07:47:51;13.40;91.70
7494;DHT22;3788;49.902;8.590;2023-04-24T07:50:18;13.80;91.50
7494;DHT22;3788;49.902;8.590;2023-04-24T07:52:45;14.40;90.70
7494;DHT22;3788;49.902;8.590;2023-04-24T07:55:12;14.70;90.20
7494;DHT22;3788;49.902;8.590;2023-04-24T07:57:40;14.80;89.80
7494;DHT22;3788;49.902;8.590;2023-04-24T08:00:08;14.80;88.40
7494;DHT22;3788;49.902;8.590;2023-04-24T08:02:34;14.80;86.50
7494;DHT22;3788;49.902;8.590;2023-04-24T08:05:01;14.60;86.20
7494;DHT22;3788;49.902;8.590;2023-04-24T08:07:29;14.30;85.90
7494;DHT22;3788;49.902;8.590;2023-04-24T08:09:56;14.20;86.70
7494;DHT22;3788;49.902;8.590;2023-04-24T08:12:22;14.80;86.10
7494;DHT22;3788;49.902;8.590;2023-04-24T08:14:51;15.40;83.20
7494;DHT22;3788;49.902;8.590;2023-04-24T08:17:17;15.50;82.50
7494;DHT22;3788;49.902;8.590;2023-04-24T08:19:44;15.70;82.30
7494;DHT22;3788;49.902;8.590;2023-04-24T08:22:13;15.50;82.10
7494;DHT22;3788;49.902;8.590;2023-04-24T08:24:40;15.40;82.60
7494;DHT22;3788;49.902;8.590;2023-04-24T08:27:08;15.40;82.50
7494;DHT22;3788;49.902;8.590;2023-04-24T08:29:35;15.90;81.00
7494;DHT22;3788;49.902;8.590;2023-04-24T08:32:03;16.70;79.50
7494;DHT22;3788;49.902;8.590;2023-04-24T08:34:29;17.60;77.80
7494;DHT22;3788;49.902;8.590;2023-04-24T08:36:56;18.20;74.80
7494;DHT22;3788;49.902;8.590;2023-04-24T08:39:22;18.80;73.20
7494;DHT22;3788;49.902;8.590;2023-04-24T08:41:50;19.20;71.70
7494;DHT22;3788;49.902;8.590;2023-04-24T08:44:19;18.80;71.80
7494;DHT22;3788;49.902;8.590;2023-04-24T08:46:47;18.60;71.50
7494;DHT22;3788;49.902;8.590;2023-04-24T08:49:15;18.30;72.50
7494;DHT22;3788;49.902;8.590;2023-04-24T08:51:42;17.80;73.10
7494;DHT22;3788;49.902;8.590;2023-04-24T08:54:11;17.20;74.30
7494;DHT22;3788;49.902;8.590;2023-04-24T08:56:40;16.60;76.10
7494;DHT22;3788;49.902;8.590;2023-04-24T08:59:10;16.20;76.40
7494;DHT22;3788;49.902;8.590;2023-04-24T09:01:37;15.70;76.40
7494;DHT22;3788;49.902;8.590;2023-04-24T09:04:07;15.40;77.80
7494;DHT22;3788;49.902;8.590;2023-04-24T09:06:35;15.00;79.00
7494;DHT22;3788;49.902;8.590;2023-04-24T09:09:03;14.80;80.50
7494;DHT22;3788;49.902;8.590;2023-04-24T09:11:31;14.50;81.30
7494;DHT22;3788;49.902;8.590;2023-04-24T09:13:58;14.40;82.00
7494;DHT22;3788;49.902;8.590;2023-04-24T09:16:26;14.30;81.10
7494;DHT22;3788;49.902;8.590;2023-04-24T09:18:53;14.20;81.20
7494;DHT22;3788;49.902;8.590;2023-04-24T09:21:21;14.10;81.80
7494;DHT22;3788;49.902;8.590;2023-04-24T09:23:58;13.90;83.30
7494;DHT22;3788;49.902;8.590;2023-04-24T09:26:25;13.80;83.80
7494;DHT22;3788;49.902;8.590;2023-04-24T09:28:53;13.70;83.60
7494;DHT22;3788;49.902;8.590;2023-04-24T09:31:20;13.70;83.80
7494;DHT22;3788;49.902;8.590;2023-04-24T09:33:54;13.60;85.10
7494;DHT22;3788;49.902;8.590;2023-04-24T09:36:27;13.50;85.80
7494;DHT22;3788;49.902;8.590;2023-04-24T09:38:57;13.50;86.30
7494;DHT22;3788;49.902;8.590;2023-04-24T09:41:26;13.50;85.90
7494;DHT22;3788;49.902;8.590;2023-04-24T09:43:54;13.50;85.80
7494;DHT22;3788;49.902;8.590;2023-04-24T09:46:20;13.60;86.00
7494;DHT22;3788;49.902;8.590;2023-04-24T09:48:48;13.60;86.30
7494;DHT22;3788;49.902;8.590;2023-04-24T09:51:14;13.60;86.50
7494;DHT22;3788;49.902;8.590;2023-04-24T09:53:45;13.60;86.80
7494;DHT22;3788;49.902;8.590;2023-04-24T09:56:12;13.60;86.30
7494;DHT22;3788;49.902;8.590;2023-04-24T09:58:40;13.60;86.30
7494;DHT22;3788;49.902;8.590;2023-04-24T10:01:07;13.60;86.70
7494;DHT22;3788;49.902;8.590;2023-04-24T10:03:35;13.70;87.20
7494;DHT22;3788;49.902;8.590;2023-04-24T10:06:02;13.80;86.90
7494;DHT22;3788;49.902;8.590;2023-04-24T10:08:34;13.90;86.20
7494;DHT22;3788;49.902;8.590;2023-04-24T10:11:01;14.00;85.50
7494;DHT22;3788;49.902;8.590;2023-04-24T10:13:28;14.10;85.80
7494;DHT22;3788;49.902;8.590;2023-04-24T10:15:59;14.20;86.30
7494;DHT22;3788;49.902;8.590;2023-04-24T10:18:27;14.10;86.70
7494;DHT22;3788;49.902;8.590;2023-04-24T10:20:54;14.00;87.00
7494;DHT22;3788;49.902;8.590;2023-04-24T10:23:21;13.90;87.50
7494;DHT22;3788;49.902;8.590;2023-04-24T10:25:49;13.80;87.60
7494;DHT22;3788;49.902;8.590;2023-04-24T10:28:18;13.70;88.50
7494;DHT22;3788;49.902;8.590;2023-04-24T10:30:45;13.60;88.30
7494;DHT22;3788;49.902;8.590;2023-04-24T10:33:14;13.70;88.80
7494;DHT22;3788;49.902;8.590;2023-04-24T10:35:44;13.70;88.60
7494;DHT22;3788;49.902;8.590;2023-04-24T10:38:15;13.90;89.00
7494;DHT22;3788;49.902;8.590;2023-04-24T10:40:43;14.20;89.10
7494;DHT22;3788;49.902;8.590;2023-04-24T10:43:09;14.50;88.00
7494;DHT22;3788;49.902;8.590;2023-04-24T10:45:37;14.70;87.20
7494;DHT22;3788;49.902;8.590;2023-04-24T10:48:05;14.90;86.20
7494;DHT22;3788;49.902;8.590;2023-04-24T10:50:44;14.90;84.60
7494;DHT22;3788;49.902;8.590;2023-04-24T10:53:14;14.80;84.80
7494;DHT22;3788;49.902;8.590;2023-04-24T10:55:46;14.70;85.40
7494;DHT22;3788;49.902;8.590;2023-04-24T10:58:13;14.50;86.10
7494;DHT22;3788;49.902;8.590;2023-04-24T11:00:41;14.40;86.90
7494;DHT22;3788;49.902;8.590;2023-04-24T11:03:22;14.40;87.50
7494;DHT22;3788;49.902;8.590;2023-04-24T11:05:53;14.20;90.20
7494;DHT22;3788;49.902;8.590;2023-04-24T11:08:26;14.10;91.40
7494;DHT22;3788;49.902;8.590;2023-04-24T11:10:59;13.80;93.10
7494;DHT22;3788;49.902;8.590;2023-04-24T11:13:27;13.50;94.20
7494;DHT22;3788;49.902;8.590;2023-04-24T11:16:19;13.30;96.30
7494;DHT22;3788;49.902;8.590;2023-04-24T11:18:50;13.00;97.30
7494;DHT22;3788;49.902;8.590;2023-04-24T11:21:22;12.80;99.10
7494;DHT22;3788;49.902;8.590;2023-04-24T11:23:49;12.70;99.90
7494;DHT22;3788;49.902;8.590;2023-04-24T11:26:18;12.50;99.90
7494;DHT22;3788;49.902;8.590;2023-04-24T11:28:46;12.40;99.90
7494;DHT22;3788;49.902;8.590;2023-04-24T11:31:39;12.30;99.90
7494;DHT22;3788;49.902;8.590;2023-04-24T11:34:10;12.20;99.90
7494;DHT22;3788;49.902;8.590;2023-04-24T11:36:39;12.10;99.90
7494;DHT22;3788;49.902;8.590;2023-04-24T11:39:06;12.10;99.90
7494;DHT22;3788;49.902;8.590;2023-04-24T11:41:33;12.00;99.90
7494;DHT22;3788;49.902;8.590;2023-04-24T11:44:00;12.00;99.90
7494;DHT22;3788;49.902;8.590;2023-04-24T11:46:28;12.00;99.90
7494;DHT22;3788;49.902;8.590;2023-04-24T11:48:56;12.10;99.90
7494;DHT22;3788;49.902;8.590;2023-04-24T11:51:23;12.20;99.90
7494;DHT22;3788;49.902;8.590;2023-04-24T11:53:52;12.20;99.90
7494;DHT22;3788;49.902;8.590;2023-04-24T11:56:19;12.20;99.90
7494;DHT22;3788;49.902;8.590;2023-04-24T11:58:47;12.20;99.90
7494;DHT22;3788;49.902;8.590;2023-04-24T12:01:14;12.20;99.90
7494;DHT22;3788;49.902;8.590;2023-04-24T12:03:41;12.20;99.90
7494;DHT22;3788;49.902;8.590;2023-04-24T12:06:12;12.10;99.90
7494;DHT22;3788;49.902;8.590;2023-04-24T12:08:39;12.10;99.90
7494;DHT22;3788;49.902;8.590;2023-04-24T12:11:07;12.20;99.90
7494;DHT22;3788;49.902;8.590;2023-04-24T12:13:35;12.30;99.90
7494;DHT22;3788;49.902;8.590;2023-04-24T12:16:03;12.40;99.90
7494;DHT22;3788;49.902;8.590;2023-04-24T12:18:30;12.60;99.90
7494;DHT22;3788;49.902;8.590;2023-04-24T12:21:16;12.80;99.90
7494;DHT22;3788;49.902;8.590;2023-04-24T12:23:43;13.10;99.90
7494;DHT22;3788;49.902;8.590;2023-04-24T12:26:12;13.10;99.90
7494;DHT22;3788;49.902;8.590;2023-04-24T12:28:42;13.20;99.90
7494;DHT22;3788;49.902;8.590;2023-04-24T12:31:08;13.30;99.90
7494;DHT22;3788;49.902;8.590;2023-04-24T12:33:35;13.50;99.90
7494;DHT22;3788;49.902;8.590;2023-04-24T12:36:02;13.60;99.90
7494;DHT22;3788;49.902;8.590;2023-04-24T12:38:30;13.80;99.90
7494;DHT22;3788;49.902;8.590;2023-04-24T12:41:06;13.90;99.80
7494;DHT22;3788;49.902;8.590;2023-04-24T12:43:35;14.10;98.60
7494;DHT22;3788;49.902;8.590;2023-04-24T12:46:02;14.20;98.10
7494;DHT22;3788;49.902;8.590;2023-04-24T12:48:29;14.40;96.20
7494;DHT22;3788;49.902;8.590;2023-04-24T12:50:57;14.50;95.10
7494;DHT22;3788;49.902;8.590;2023-04-24T12:53:27;14.60;94.10
7494;DHT22;3788;49.902;8.590;2023-04-24T12:55:54;14.60;93.80
7494;DHT22;3788;49.902;8.590;2023-04-24T12:58:21;14.50;93.70
7494;DHT22;3788;49.902;8.590;2023-04-24T13:00:50;14.40;93.90
7494;DHT22;3788;49.902;8.590;2023-04-24T13:03:18;14.30;94.10
7494;DHT22;3788;49.902;8.590;2023-04-24T13:05:44;14.20;93.10
7494;DHT22;3788;49.902;8.590;2023-04-24T13:08:11;14.30;91.40
7494;DHT22;3788;49.902;8.590;2023-04-24T13:10:39;14.40;91.40
7494;DHT22;3788;49.902;8.590;2023-04-24T13:13:06;14.50;90.10
7494;DHT22;3788;49.902;8.590;2023-04-24T13:15:33;14.70;88.20
7494;DHT22;3788;49.902;8.590;2023-04-24T13:18:01;14.80;87.60
7494;DHT22;3788;49.902;8.590;2023-04-24T13:20:27;14.80;88.30
7494;DHT22;3788;49.902;8.590;2023-04-24T13:22:54;14.80;88.00
7494;DHT22;3788;49.902;8.590;2023-04-24T13:25:21;14.80;88.50
7494;DHT22;3788;49.902;8.590;2023-04-24T13:27:48;14.80;89.50
7494;DHT22;3788;49.902;8.590;2023-04-24T13:30:16;14.90;87.70
7494;DHT22;3788;49.902;8.590;2023-04-24T13:32:42;15.00;86.50
7494;DHT22;3788;49.902;8.590;2023-04-24T13:35:11;15.00;87.70
7494;DHT22;3788;49.902;8.590;2023-04-24T13:37:38;15.10;87.50
7494;DHT22;3788;49.902;8.590;2023-04-24T13:40:05;15.10;86.10
7494;DHT22;3788;49.902;8.590;2023-04-24T13:42:32;15.10;84.20
7494;DHT22;3788;49.902;8.590;2023-04-24T13:44:59;15.00;83.60
7494;DHT22;3788;49.902;8.590;2023-04-24T13:47:26;15.00;83.90
7494;DHT22;3788;49.902;8.590;2023-04-24T13:49:53;14.90;83.10
7494;DHT22;3788;49.902;8.590;2023-04-24T13:52:24;14.70;84.60
7494;DHT22;3788;49.902;8.590;2023-04-24T13:54:51;14.70;85.50
7494;DHT22;3788;49.902;8.590;2023-04-24T13:57:18;14.60;83.10
7494;DHT22;3788;49.902;8.590;2023-04-24T13:59:45;14.50;83.10
7494;DHT22;3788;49.902;8.590;2023-04-24T14:02:11;14.50;83.70
7494;DHT22;3788;49.902;8.590;2023-04-24T14:04:38;14.40;83.70
7494;DHT22;3788;49.902;8.590;2023-04-24T14:07:05;14.50;84.90
7494;DHT22;3788;49.902;8.590;2023-04-24T14:09:33;14.50;87.20
7494;DHT22;3788;49.902;8.590;2023-04-24T14:11:59;14.70;87.00
7494;DHT22;3788;49.902;8.590;2023-04-24T14:14:27;14.80;86.30
7494;DHT22;3788;49.902;8.590;2023-04-24T14:16:55;14.80;85.90
7494;DHT22;3788;49.902;8.590;2023-04-24T14:19:21;14.70;86.00
7494;DHT22;3788;49.902;8.590;2023-04-24T14:21:48;14.60;86.10
7494;DHT22;3788;49.902;8.590;2023-04-24T14:24:15;14.50;85.20
7494;DHT22;3788;49.902;8.590;2023-04-24T14:26:43;14.50;85.00
7494;DHT22;3788;49.902;8.590;2023-04-24T14:29:10;14.60;85.70
7494;DHT22;3788;49.902;8.590;2023-04-24T14:31:37;14.50;83.10
7494;DHT22;3788;49.902;8.590;2023-04-24T14:34:03;14.50;83.60
7494;DHT22;3788;49.902;8.590;2023-04-24T14:36:30;14.50;83.30
7494;DHT22;3788;49.902;8.590;2023-04-24T14:38:57;14.50;83.10
7494;DHT22;3788;49.902;8.590;2023-04-24T14:41:23;14.50;84.10
7494;DHT22;3788;49.902;8.590;2023-04-24T14:43:51;14.50;82.90
7494;DHT22;3788;49.902;8.590;2023-04-24T14:46:18;14.40;82.10
7494;DHT22;3788;49.902;8.590;2023-04-24T14:48:44;14.40;82.00
7494;DHT22;3788;49.902;8.590;2023-04-24T14:51:11;14.40;82.10
7494;DHT22;3788;49.902;8.590;2023-04-24T14:53:38;14.40;82.40
7494;DHT22;3788;49.902;8.590;2023-04-24T14:56:05;14.30;83.00
7494;DHT22;3788;49.902;8.590;2023-04-24T14:58:31;14.30;83.60
7494;DHT22;3788;49.902;8.590;2023-04-24T15:01:00;14.30;84.90
7494;DHT22;3788;49.902;8.590;2023-04-24T15:03:26;14.40;85.00
7494;DHT22;3788;49.902;8.590;2023-04-24T15:05:53;14.40;84.00
7494;DHT22;3788;49.902;8.590;2023-04-24T15:08:20;14.40;83.40
7494;DHT22;3788;49.902;8.590;2023-04-24T15:10:46;14.40;84.20
7494;DHT22;3788;49.902;8.590;2023-04-24T15:13:13;14.40;83.20
7494;DHT22;3788;49.902;8.590;2023-04-24T15:15:40;14.50;84.00
7494;DHT22;3788;49.902;8.590;2023-04-24T15:18:10;14.50;85.10
7494;DHT22;3788;49.902;8.590;2023-04-24T15:20:37;14.50;84.60
7494;DHT22;3788;49.902;8.590;2023-04-24T15:23:05;14.60;83.40
7494;DHT22;3788;49.902;8.590;2023-04-24T15:25:31;14.60;83.00
7494;DHT22;3788;49.902;8.590;2023-04-24T15:27:58;14.70;83.20
7494;DHT22;3788;49.902;8.590;2023-04-24T15:30:25;14.80;83.80
7494;DHT22;3788;49.902;8.590;2023-04-24T15:32:52;14.90;81.70
7494;DHT22;3788;49.902;8.590;2023-04-24T15:35:20;14.90;83.10
7494;DHT22;3788;49.902;8.590;2023-04-24T15:37:46;14.90;81.70
7494;DHT22;3788;49.902;8.590;2023-04-24T15:40:13;14.90;82.90
7494;DHT22;3788;49.902;8.590;2023-04-24T15:42:41;14.90;83.70
7494;DHT22;3788;49.902;8.590;2023-04-24T15:45:09;14.90;83.70
7494;DHT22;3788;49.902;8.590;2023-04-24T15:47:36;15.00;83.50
7494;DHT22;3788;49.902;8.590;2023-04-24T15:50:02;15.00;81.20
7494;DHT22;3788;49.902;8.590;2023-04-24T15:52:31;15.10;81.90
7494;DHT22;3788;49.902;8.590;2023-04-24T15:54:57;15.20;81.20
7494;DHT22;3788;49.902;8.590;2023-04-24T15:57:24;15.20;81.00
7494;DHT22;3788;49.902;8.590;2023-04-24T15:59:51;15.20;81.90
7494;DHT22;3788;49.902;8.590;2023-04-24T16:02:18;15.20;82.20
7494;DHT22;3788;49.902;8.590;2023-04-24T16:04:46;15.20;82.60
7494;DHT22;3788;49.902;8.590;2023-04-24T16:07:13;15.30;81.90